sensor_id;sensor_type;location;lat;lon;timestamp;P1;durP1;ratioP1;P2;durP2;ratioP2
71959;SDS011;59832;51.146;14.024;2023-07-02T04:02:31;1.40;;;1.30;;
71959;SDS011;59832;51.146;14.024;2023-07-02T04:04:58;1.50;;;1.40;;
71959;SDS011;59832;51.146;14.024;2023-07-02T04:07:24;1.97;;;1.23;;
71959;SDS011;59832;51.146;14.024;2023-07-02T04:09:51;1.40;;;1.30;;
71959;SDS011;59832;51.146;14.024;2023-07-02T04:12:17;1.30;;;1.20;;
71959;SDS011;59832;51.146;14.024;2023-07-02T04:14:43;1.25;;;1.15;;
71959;SDS011;59832;51.146;14.024;2023-07-02T04:17:10;2.93;;;1.57;;
71959;SDS011;59832;51.146;14.024;2023-07-02T04:19:36;2.33;;;1.50;;
71959;SDS011;59832;51.146;14.024;2023-07-02T04:22:03;1.73;;;1.63;;
71959;SDS011;59832;51.146;14.024;2023-07-02T04:24:29;1.67;;;1.57;;
71959;SDS011;59832;51.146;14.024;2023-07-02T04:26:56;1.80;;;1.70;;
71959;SDS011;59832;51.146;14.024;2023-07-02T04:29:43;1.70;;;1.60;;
71959;SDS011;59832;51.146;14.024;2023-07-02T04:32:10;1.80;;;1.70;;
71959;SDS011;59832;51.146;14.024;2023-07-02T04:34:37;1.87;;;1.77;;
71959;SDS011;59832;51.146;14.024;2023-07-02T04:37:03;2.25;;;1.85;;
71959;SDS011;59832;51.146;14.024;2023-07-02T04:39:30;1.90;;;1.80;;
71959;SDS011;59832;51.146;14.024;2023-07-02T04:41:57;2.00;;;1.90;;
71959;SDS011;59832;51.146;14.024;2023-07-02T04:44:23;1.90;;;1.70;;
71959;SDS011;59832;51.146;14.024;2023-07-02T04:46:58;3.33;;;1.70;;
71959;SDS011;59832;51.146;14.024;2023-07-02T04:49:27;1.73;;;1.63;;
71959;SDS011;59832;51.146;14.024;2023-07-02T04:51:53;1.83;;;1.60;;
71959;SDS011;59832;51.146;14.024;2023-07-02T04:54:20;1.93;;;1.83;;
71959;SDS011;59832;51.146;14.024;2023-07-02T04:56:47;2.22;;;2.00;;
71959;SDS011;59832;51.146;14.024;2023-07-02T04:59:14;2.30;;;2.10;;
71959;SDS011;59832;51.146;14.024;2023-07-02T05:04:09;3.83;;;2.10;;
71959;SDS011;59832;51.146;14.024;2023-07-02T05:06:37;2.40;;;2.20;;
71959;SDS011;59832;51.146;14.024;2023-07-02T05:09:04;2.63;;;2.43;;
71959;SDS011;59832;51.146;14.024;2023-07-02T05:11:31;2.28;;;2.15;;
71959;SDS011;59832;51.146;14.024;2023-07-02T05:13:57;2.60;;;2.40;;
71959;SDS011;59832;51.146;14.024;2023-07-02T05:16:24;3.17;;;2.87;;
71959;SDS011;59832;51.146;14.024;2023-07-02T05:18:50;2.20;;;2.10;;
71959;SDS011;59832;51.146;14.024;2023-07-02T05:21:17;2.67;;;2.47;;
71959;SDS011;59832;51.146;14.024;2023-07-02T05:23:44;2.90;;;2.70;;
71959;SDS011;59832;51.146;14.024;2023-07-02T05:26:10;2.60;;;2.50;;
71959;SDS011;59832;51.146;14.024;2023-07-02T05:28:37;2.13;;;2.03;;
71959;SDS011;59832;51.146;14.024;2023-07-02T05:31:03;2.43;;;2.23;;
71959;SDS011;59832;51.146;14.024;2023-07-02T05:33:30;3.67;;;2.30;;
71959;SDS011;59832;51.146;14.024;2023-07-02T05:35:58;2.83;;;2.60;;
71959;SDS011;59832;51.146;14.024;2023-07-02T05:38:24;2.50;;;2.30;;
71959;SDS011;59832;51.146;14.024;2023-07-02T05:40:52;4.03;;;2.33;;
71959;SDS011;59832;51.146;14.024;2023-07-02T05:43:19;4.03;;;3.00;;
71959;SDS011;59832;51.146;14.024;2023-07-02T05:45:45;2.90;;;2.70;;
71959;SDS011;59832;51.146;14.024;2023-07-02T05:48:12;2.73;;;2.53;;
71959;SDS011;59832;51.146;14.024;2023-07-02T05:50:38;3.25;;;2.95;;
71959;SDS011;59832;51.146;14.024;2023-07-02T05:53:05;3.10;;;2.90;;
71959;SDS011;59832;51.146;14.024;2023-07-02T05:55:31;2.40;;;2.30;;
71959;SDS011;59832;51.146;14.024;2023-07-02T05:57:58;2.50;;;2.30;;
71959;SDS011;59832;51.146;14.024;2023-07-02T06:00:27;2.95;;;2.75;;
71959;SDS011;59832;51.146;14.024;2023-07-02T06:02:54;3.40;;;2.65;;
71959;SDS011;59832;51.146;14.024;2023-07-02T06:05:21;2.65;;;2.45;;
71959;SDS011;59832;51.146;14.024;2023-07-02T06:07:47;3.50;;;2.58;;
71959;SDS011;59832;51.146;14.024;2023-07-02T06:10:14;3.77;;;3.00;;
71959;SDS011;59832;51.146;14.024;2023-07-02T06:12:41;3.33;;;3.13;;
71959;SDS011;59832;51.146;14.024;2023-07-02T06:15:09;3.00;;;2.58;;
71959;SDS011;59832;51.146;14.024;2023-07-02T06:17:36;4.38;;;2.78;;
71959;SDS011;59832;51.146;14.024;2023-07-02T06:20:03;3.10;;;2.80;;
71959;SDS011;59832;51.146;14.024;2023-07-02T06:22:33;3.95;;;2.92;;
71959;SDS011;59832;51.146;14.024;2023-07-02T06:24:59;3.17;;;2.50;;
71959;SDS011;59832;51.146;14.024;2023-07-02T06:27:30;2.85;;;2.65;;
71959;SDS011;59832;51.146;14.024;2023-07-02T06:29:57;3.60;;;2.67;;
71959;SDS011;59832;51.146;14.024;2023-07-02T06:32:23;3.17;;;2.97;;
71959;SDS011;59832;51.146;14.024;2023-07-02T06:34:50;2.60;;;2.40;;
71959;SDS011;59832;51.146;14.024;2023-07-02T06:37:16;2.83;;;2.63;;
71959;SDS011;59832;51.146;14.024;2023-07-02T06:39:43;3.63;;;2.72;;
71959;SDS011;59832;51.146;14.024;2023-07-02T06:42:09;2.47;;;2.28;;
71959;SDS011;59832;51.146;14.024;2023-07-02T06:44:35;2.47;;;2.20;;
71959;SDS011;59832;51.146;14.024;2023-07-02T06:47:02;3.60;;;2.40;;
71959;SDS011;59832;51.146;14.024;2023-07-02T06:49:29;2.63;;;2.10;;
71959;SDS011;59832;51.146;14.024;2023-07-02T06:51:55;2.90;;;1.70;;
71959;SDS011;59832;51.146;14.024;2023-07-02T06:54:22;2.75;;;1.80;;
71959;SDS011;59832;51.146;14.024;2023-07-02T06:56:48;3.35;;;1.77;;
71959;SDS011;59832;51.146;14.024;2023-07-02T06:59:21;2.38;;;2.17;;
71959;SDS011;59832;51.146;14.024;2023-07-02T07:01:51;2.63;;;1.80;;
71959;SDS011;59832;51.146;14.024;2023-07-02T07:04:18;2.70;;;2.28;;
71959;SDS011;59832;51.146;14.024;2023-07-02T07:06:45;1.88;;;1.77;;
71959;SDS011;59832;51.146;14.024;2023-07-02T07:09:11;2.35;;;2.15;;
71959;SDS011;59832;51.146;14.024;2023-07-02T07:11:38;2.25;;;1.95;;
71959;SDS011;59832;51.146;14.024;2023-07-02T07:14:04;2.50;;;1.80;;
71959;SDS011;59832;51.146;14.024;2023-07-02T07:16:31;2.20;;;2.00;;
71959;SDS011;59832;51.146;14.024;2023-07-02T07:18:57;2.70;;;1.70;;
71959;SDS011;59832;51.146;14.024;2023-07-02T07:21:24;2.30;;;1.70;;
71959;SDS011;59832;51.146;14.024;2023-07-02T07:23:50;2.65;;;1.70;;
71959;SDS011;59832;51.146;14.024;2023-07-02T07:26:17;2.28;;;2.00;;
71959;SDS011;59832;51.146;14.024;2023-07-02T07:28:43;1.80;;;1.50;;
71959;SDS011;59832;51.146;14.024;2023-07-02T07:31:10;1.83;;;1.73;;
71959;SDS011;59832;51.146;14.024;2023-07-02T07:33:36;1.80;;;1.70;;
71959;SDS011;59832;51.146;14.024;2023-07-02T07:36:03;4.65;;;2.05;;
71959;SDS011;59832;51.146;14.024;2023-07-02T07:38:29;1.80;;;1.60;;
71959;SDS011;59832;51.146;14.024;2023-07-02T07:40:55;3.20;;;1.57;;
71959;SDS011;59832;51.146;14.024;2023-07-02T07:43:22;1.80;;;1.70;;
71959;SDS011;59832;51.146;14.024;2023-07-02T07:45:49;1.85;;;1.75;;
71959;SDS011;59832;51.146;14.024;2023-07-02T07:48:15;2.10;;;1.90;;
71959;SDS011;59832;51.146;14.024;2023-07-02T07:50:41;1.93;;;1.77;;
71959;SDS011;59832;51.146;14.024;2023-07-02T07:53:08;2.03;;;1.83;;
71959;SDS011;59832;51.146;14.024;2023-07-02T07:55:34;1.87;;;1.73;;
71959;SDS011;59832;51.146;14.024;2023-07-02T07:58:01;2.28;;;2.10;;
71959;SDS011;59832;51.146;14.024;2023-07-02T08:00:27;2.28;;;2.08;;
71959;SDS011;59832;51.146;14.024;2023-07-02T08:02:54;2.55;;;1.80;;
71959;SDS011;59832;51.146;14.024;2023-07-02T08:05:22;2.08;;;1.98;;
71959;SDS011;59832;51.146;14.024;2023-07-02T08:07:49;2.25;;;2.08;;
71959;SDS011;59832;51.146;14.024;2023-07-02T08:10:15;2.63;;;1.90;;
71959;SDS011;59832;51.146;14.024;2023-07-02T08:12:42;2.55;;;2.35;;
71959;SDS011;59832;51.146;14.024;2023-07-02T08:15:08;2.33;;;2.10;;
71959;SDS011;59832;51.146;14.024;2023-07-02T08:17:35;2.38;;;2.17;;
71959;SDS011;59832;51.146;14.024;2023-07-02T08:20:02;1.90;;;1.75;;
71959;SDS011;59832;51.146;14.024;2023-07-02T08:22:30;2.30;;;2.15;;
71959;SDS011;59832;51.146;14.024;2023-07-02T08:24:57;2.30;;;2.10;;
71959;SDS011;59832;51.146;14.024;2023-07-02T08:27:23;4.22;;;1.80;;
71959;SDS011;59832;51.146;14.024;2023-07-02T08:29:49;2.65;;;1.60;;
71959;SDS011;59832;51.146;14.024;2023-07-02T08:32:16;1.60;;;1.50;;
71959;SDS011;59832;51.146;14.024;2023-07-02T08:34:43;1.90;;;1.80;;
71959;SDS011;59832;51.146;14.024;2023-07-02T08:37:09;2.38;;;1.60;;
71959;SDS011;59832;51.146;14.024;2023-07-02T08:39:36;1.40;;;1.30;;
71959;SDS011;59832;51.146;14.024;2023-07-02T08:42:06;1.55;;;1.45;;
71959;SDS011;59832;51.146;14.024;2023-07-02T08:44:33;1.83;;;1.50;;
71959;SDS011;59832;51.146;14.024;2023-07-02T08:46:59;3.20;;;1.80;;
71959;SDS011;59832;51.146;14.024;2023-07-02T08:49:27;2.83;;;1.40;;
71959;SDS011;59832;51.146;14.024;2023-07-02T08:51:54;1.83;;;1.52;;
71959;SDS011;59832;51.146;14.024;2023-07-02T08:54:20;1.42;;;1.33;;
71959;SDS011;59832;51.146;14.024;2023-07-02T08:56:47;1.70;;;1.60;;
71959;SDS011;59832;51.146;14.024;2023-07-02T08:59:14;1.70;;;1.50;;
71959;SDS011;59832;51.146;14.024;2023-07-02T09:01:50;1.60;;;1.50;;
71959;SDS011;59832;51.146;14.024;2023-07-02T09:07:03;1.55;;;1.42;;
71959;SDS011;59832;51.146;14.024;2023-07-02T09:09:43;1.80;;;1.50;;
71959;SDS011;59832;51.146;14.024;2023-07-02T09:12:30;1.80;;;1.48;;
71959;SDS011;59832;51.146;14.024;2023-07-02T09:14:59;1.43;;;1.33;;
71959;SDS011;59832;51.146;14.024;2023-07-02T09:17:33;3.05;;;1.60;;
71959;SDS011;59832;51.146;14.024;2023-07-02T09:20:01;2.40;;;1.60;;
71959;SDS011;59832;51.146;14.024;2023-07-02T09:22:35;1.65;;;1.30;;
71959;SDS011;59832;51.146;14.024;2023-07-02T09:25:02;1.70;;;1.50;;
71959;SDS011;59832;51.146;14.024;2023-07-02T09:27:33;1.48;;;1.38;;
71959;SDS011;59832;51.146;14.024;2023-07-02T09:30:05;2.38;;;1.17;;
71959;SDS011;59832;51.146;14.024;2023-07-02T09:32:36;1.73;;;1.40;;
71959;SDS011;59832;51.146;14.024;2023-07-02T09:35:02;1.38;;;1.27;;
71959;SDS011;59832;51.146;14.024;2023-07-02T09:37:31;2.58;;;1.52;;
71959;SDS011;59832;51.146;14.024;2023-07-02T09:39:57;1.83;;;1.60;;
71959;SDS011;59832;51.146;14.024;2023-07-02T09:42:24;1.95;;;1.23;;
71959;SDS011;59832;51.146;14.024;2023-07-02T09:44:52;1.75;;;1.65;;
71959;SDS011;59832;51.146;14.024;2023-07-02T09:47:21;2.30;;;1.30;;
71959;SDS011;59832;51.146;14.024;2023-07-02T09:49:51;2.65;;;1.33;;
71959;SDS011;59832;51.146;14.024;2023-07-02T09:52:20;1.63;;;1.38;;
71959;SDS011;59832;51.146;14.024;2023-07-02T09:54:47;1.23;;;1.17;;
71959;SDS011;59832;51.146;14.024;2023-07-02T09:57:13;1.88;;;1.45;;
71959;SDS011;59832;51.146;14.024;2023-07-02T09:59:40;1.35;;;1.25;;
71959;SDS011;59832;51.146;14.024;2023-07-02T10:02:08;1.40;;;1.30;;
71959;SDS011;59832;51.146;14.024;2023-07-02T10:04:39;2.97;;;1.30;;
71959;SDS011;59832;51.146;14.024;2023-07-02T10:07:10;1.50;;;1.40;;
71959;SDS011;59832;51.146;14.024;2023-07-02T10:12:24;1.25;;;1.10;;
71959;SDS011;59832;51.146;14.024;2023-07-02T10:14:53;1.33;;;1.23;;
71959;SDS011;59832;51.146;14.024;2023-07-02T10:17:24;2.25;;;1.20;;
71959;SDS011;59832;51.146;14.024;2023-07-02T10:19:52;1.50;;;1.40;;
71959;SDS011;59832;51.146;14.024;2023-07-02T10:22:19;1.73;;;1.30;;
71959;SDS011;59832;51.146;14.024;2023-07-02T10:27:18;2.08;;;1.10;;
71959;SDS011;59832;51.146;14.024;2023-07-02T10:29:51;1.42;;;1.33;;
71959;SDS011;59832;51.146;14.024;2023-07-02T10:32:27;1.50;;;1.20;;
71959;SDS011;59832;51.146;14.024;2023-07-02T10:34:57;2.55;;;1.38;;
71959;SDS011;59832;51.146;14.024;2023-07-02T10:37:25;1.92;;;1.33;;
71959;SDS011;59832;51.146;14.024;2023-07-02T10:39:52;1.17;;;1.08;;
71959;SDS011;59832;51.146;14.024;2023-07-02T10:42:21;1.35;;;1.20;;
71959;SDS011;59832;51.146;14.024;2023-07-02T10:47:17;1.02;;;0.93;;
71959;SDS011;59832;51.146;14.024;2023-07-02T10:49:45;1.60;;;1.50;;
71959;SDS011;59832;51.146;14.024;2023-07-02T10:52:11;1.23;;;1.13;;
71959;SDS011;59832;51.146;14.024;2023-07-02T10:54:46;1.05;;;1.05;;
71959;SDS011;59832;51.146;14.024;2023-07-02T10:57:14;1.30;;;1.20;;
71959;SDS011;59832;51.146;14.024;2023-07-02T10:59:48;1.30;;;1.20;;
71959;SDS011;59832;51.146;14.024;2023-07-02T11:02:15;1.20;;;1.10;;
71959;SDS011;59832;51.146;14.024;2023-07-02T11:04:42;2.95;;;1.20;;
71959;SDS011;59832;51.146;14.024;2023-07-02T11:09:36;1.38;;;1.27;;
71959;SDS011;59832;51.146;14.024;2023-07-02T11:12:02;2.20;;;1.00;;
71959;SDS011;59832;51.146;14.024;2023-07-02T11:14:36;1.70;;;1.15;;
71959;SDS011;59832;51.146;14.024;2023-07-02T11:17:03;1.40;;;1.30;;
71959;SDS011;59832;51.146;14.024;2023-07-02T11:19:33;1.17;;;1.08;;
71959;SDS011;59832;51.146;14.024;2023-07-02T11:22:01;1.38;;;1.27;;
71959;SDS011;59832;51.146;14.024;2023-07-02T11:24:32;1.48;;;1.20;;
71959;SDS011;59832;51.146;14.024;2023-07-02T11:27:01;1.27;;;1.17;;
71959;SDS011;59832;51.146;14.024;2023-07-02T11:29:30;1.70;;;1.27;;
71959;SDS011;59832;51.146;14.024;2023-07-02T11:32:07;2.45;;;1.30;;
71959;SDS011;59832;51.146;14.024;2023-07-02T11:34:38;1.23;;;1.13;;
71959;SDS011;59832;51.146;14.024;2023-07-02T11:37:05;1.52;;;1.17;;
71959;SDS011;59832;51.146;14.024;2023-07-02T11:39:32;1.20;;;1.10;;
71959;SDS011;59832;51.146;14.024;2023-07-02T11:41:58;2.35;;;1.10;;
71959;SDS011;59832;51.146;14.024;2023-07-02T11:44:25;0.98;;;0.98;;
71959;SDS011;59832;51.146;14.024;2023-07-02T11:46:51;1.30;;;1.20;;
71959;SDS011;59832;51.146;14.024;2023-07-02T11:49:19;1.58;;;1.23;;
71959;SDS011;59832;51.146;14.024;2023-07-02T11:51:46;1.23;;;1.10;;
71959;SDS011;59832;51.146;14.024;2023-07-02T11:54:15;1.42;;;1.33;;
71959;SDS011;59832;51.146;14.024;2023-07-02T11:56:42;1.23;;;1.10;;
71959;SDS011;59832;51.146;14.024;2023-07-02T11:59:09;1.23;;;1.13;;
71959;SDS011;59832;51.146;14.024;2023-07-02T12:04:02;2.70;;;1.27;;
71959;SDS011;59832;51.146;14.024;2023-07-02T12:06:30;1.15;;;1.02;;
71959;SDS011;59832;51.146;14.024;2023-07-02T12:08:57;3.10;;;1.27;;
71959;SDS011;59832;51.146;14.024;2023-07-02T12:11:23;1.30;;;1.20;;
71959;SDS011;59832;51.146;14.024;2023-07-02T12:13:49;1.20;;;1.10;;
71959;SDS011;59832;51.146;14.024;2023-07-02T12:16:16;1.17;;;1.13;;
71959;SDS011;59832;51.146;14.024;2023-07-02T12:18:42;1.73;;;1.20;;
71959;SDS011;59832;51.146;14.024;2023-07-02T12:21:09;1.30;;;1.20;;
71959;SDS011;59832;51.146;14.024;2023-07-02T12:23:35;1.38;;;1.27;;
71959;SDS011;59832;51.146;14.024;2023-07-02T12:26:02;1.38;;;1.27;;
71959;SDS011;59832;51.146;14.024;2023-07-02T12:28:28;2.20;;;1.20;;
71959;SDS011;59832;51.146;14.024;2023-07-02T12:30:54;2.60;;;1.35;;
71959;SDS011;59832;51.146;14.024;2023-07-02T12:33:21;2.15;;;1.73;;
71959;SDS011;59832;51.146;14.024;2023-07-02T12:35:47;2.25;;;1.40;;
71959;SDS011;59832;51.146;14.024;2023-07-02T12:38:14;1.77;;;1.20;;
71959;SDS011;59832;51.146;14.024;2023-07-02T12:40:41;1.60;;;1.50;;
71959;SDS011;59832;51.146;14.024;2023-07-02T12:43:07;1.90;;;1.33;;
71959;SDS011;59832;51.146;14.024;2023-07-02T12:45:34;2.90;;;1.45;;
71959;SDS011;59832;51.146;14.024;2023-07-02T12:48:00;1.50;;;1.40;;
71959;SDS011;59832;51.146;14.024;2023-07-02T12:50:28;1.90;;;1.45;;
71959;SDS011;59832;51.146;14.024;2023-07-02T12:52:54;2.22;;;1.40;;
71959;SDS011;59832;51.146;14.024;2023-07-02T12:55:21;2.95;;;1.60;;
71959;SDS011;59832;51.146;14.024;2023-07-02T12:57:47;2.10;;;1.70;;
71959;SDS011;59832;51.146;14.024;2023-07-02T13:00:14;2.53;;;1.60;;
71959;SDS011;59832;51.146;14.024;2023-07-02T13:02:40;3.67;;;1.92;;
71959;SDS011;59832;51.146;14.024;2023-07-02T13:05:23;1.50;;;1.40;;
71959;SDS011;59832;51.146;14.024;2023-07-02T13:07:50;3.25;;;1.50;;
71959;SDS011;59832;51.146;14.024;2023-07-02T13:10:16;2.60;;;1.83;;
71959;SDS011;59832;51.146;14.024;2023-07-02T13:12:43;3.58;;;1.80;;
71959;SDS011;59832;51.146;14.024;2023-07-02T13:15:09;2.30;;;1.83;;
71959;SDS011;59832;51.146;14.024;2023-07-02T13:17:38;3.67;;;1.70;;
71959;SDS011;59832;51.146;14.024;2023-07-02T13:20:04;2.33;;;2.13;;
71959;SDS011;59832;51.146;14.024;2023-07-02T13:24:58;4.13;;;2.53;;
71959;SDS011;59832;51.146;14.024;2023-07-02T13:27:24;5.60;;;2.53;;
71959;SDS011;59832;51.146;14.024;2023-07-02T13:29:50;5.32;;;2.55;;
71959;SDS011;59832;51.146;14.024;2023-07-02T13:32:17;3.63;;;2.78;;
71959;SDS011;59832;51.146;14.024;2023-07-02T13:34:43;3.05;;;2.53;;
71959;SDS011;59832;51.146;14.024;2023-07-02T13:37:10;2.50;;;2.00;;
71959;SDS011;59832;51.146;14.024;2023-07-02T13:39:36;2.20;;;1.88;;
71959;SDS011;59832;51.146;14.024;2023-07-02T13:42:03;3.85;;;2.10;;
71959;SDS011;59832;51.146;14.024;2023-07-02T13:44:30;4.47;;;2.33;;
71959;SDS011;59832;51.146;14.024;2023-07-02T13:49:23;3.28;;;2.38;;
71959;SDS011;59832;51.146;14.024;2023-07-02T13:51:51;4.47;;;2.30;;
71959;SDS011;59832;51.146;14.024;2023-07-02T13:54:18;2.97;;;2.50;;
71959;SDS011;59832;51.146;14.024;2023-07-02T13:56:46;3.17;;;2.50;;
71959;SDS011;59832;51.146;14.024;2023-07-02T13:59:24;4.70;;;2.70;;
71959;SDS011;59832;51.146;14.024;2023-07-02T14:01:51;2.63;;;2.38;;
71959;SDS011;59832;51.146;14.024;2023-07-02T14:04:18;4.07;;;2.35;;
71959;SDS011;59832;51.146;14.024;2023-07-02T14:06:45;3.60;;;2.88;;
71959;SDS011;59832;51.146;14.024;2023-07-02T14:09:12;3.05;;;2.55;;
71959;SDS011;59832;51.146;14.024;2023-07-02T14:11:39;2.88;;;2.60;;
71959;SDS011;59832;51.146;14.024;2023-07-02T14:14:07;4.53;;;2.40;;
71959;SDS011;59832;51.146;14.024;2023-07-02T14:16:34;2.50;;;2.28;;
71959;SDS011;59832;51.146;14.024;2023-07-02T14:19:01;3.28;;;2.50;;
71959;SDS011;59832;51.146;14.024;2023-07-02T14:21:27;3.85;;;2.33;;
71959;SDS011;59832;51.146;14.024;2023-07-02T14:23:54;3.20;;;2.20;;
71959;SDS011;59832;51.146;14.024;2023-07-02T14:26:20;2.20;;;2.00;;
71959;SDS011;59832;51.146;14.024;2023-07-02T14:28:47;3.05;;;2.47;;
71959;SDS011;59832;51.146;14.024;2023-07-02T14:31:13;2.45;;;2.25;;
71959;SDS011;59832;51.146;14.024;2023-07-02T14:33:40;5.57;;;2.70;;
71959;SDS011;59832;51.146;14.024;2023-07-02T14:36:06;3.00;;;2.70;;
71959;SDS011;59832;51.146;14.024;2023-07-02T14:38:34;4.65;;;2.50;;
71959;SDS011;59832;51.146;14.024;2023-07-02T14:41:02;7.25;;;4.05;;
71959;SDS011;59832;51.146;14.024;2023-07-02T14:45:57;7.20;;;3.50;;
71959;SDS011;59832;51.146;14.024;2023-07-02T14:48:24;4.75;;;3.63;;
71959;SDS011;59832;51.146;14.024;2023-07-02T14:50:57;6.43;;;4.03;;
71959;SDS011;59832;51.146;14.024;2023-07-02T14:53:24;5.20;;;3.30;;
71959;SDS011;59832;51.146;14.024;2023-07-02T14:55:56;5.60;;;3.72;;
71959;SDS011;59832;51.146;14.024;2023-07-02T14:58:25;6.45;;;3.30;;
71959;SDS011;59832;51.146;14.024;2023-07-02T15:00:54;4.38;;;3.28;;
71959;SDS011;59832;51.146;14.024;2023-07-02T15:03:23;8.32;;;3.67;;
71959;SDS011;59832;51.146;14.024;2023-07-02T15:05:51;4.20;;;3.42;;
71959;SDS011;59832;51.146;14.024;2023-07-02T15:08:20;5.63;;;3.40;;
71959;SDS011;59832;51.146;14.024;2023-07-02T15:10:48;3.50;;;3.20;;
71959;SDS011;59832;51.146;14.024;2023-07-02T15:13:16;4.85;;;3.05;;
71959;SDS011;59832;51.146;14.024;2023-07-02T15:15:44;5.45;;;3.13;;
71959;SDS011;59832;51.146;14.024;2023-07-02T15:18:12;3.53;;;2.90;;
71959;SDS011;59832;51.146;14.024;2023-07-02T15:20:39;4.13;;;3.10;;
71959;SDS011;59832;51.146;14.024;2023-07-02T15:23:05;4.53;;;3.20;;
71959;SDS011;59832;51.146;14.024;2023-07-02T15:25:32;5.10;;;3.33;;
71959;SDS011;59832;51.146;14.024;2023-07-02T15:27:59;6.70;;;3.50;;
71959;SDS011;59832;51.146;14.024;2023-07-02T15:30:27;3.92;;;3.42;;
71959;SDS011;59832;51.146;14.024;2023-07-02T15:32:54;5.40;;;3.70;;
71959;SDS011;59832;51.146;14.024;2023-07-02T15:35:21;4.53;;;3.83;;
71959;SDS011;59832;51.146;14.024;2023-07-02T15:37:48;5.40;;;3.90;;
71959;SDS011;59832;51.146;14.024;2023-07-02T15:40:16;4.88;;;3.70;;
71959;SDS011;59832;51.146;14.024;2023-07-02T15:42:42;5.50;;;3.88;;
71959;SDS011;59832;51.146;14.024;2023-07-02T15:45:10;6.32;;;3.83;;
71959;SDS011;59832;51.146;14.024;2023-07-02T15:50:04;5.32;;;4.22;;
71959;SDS011;59832;51.146;14.024;2023-07-02T15:52:31;6.10;;;4.18;;
71959;SDS011;59832;51.146;14.024;2023-07-02T15:54:58;6.82;;;4.30;;
71959;SDS011;59832;51.146;14.024;2023-07-02T15:57:24;6.10;;;4.32;;
71959;SDS011;59832;51.146;14.024;2023-07-02T15:59:51;5.32;;;4.80;;
71959;SDS011;59832;51.146;14.024;2023-07-02T16:02:19;8.55;;;5.18;;
71959;SDS011;59832;51.146;14.024;2023-07-02T16:04:49;7.05;;;5.28;;
71959;SDS011;59832;51.146;14.024;2023-07-02T16:07:15;5.95;;;4.70;;
71959;SDS011;59832;51.146;14.024;2023-07-02T16:09:42;6.38;;;5.15;;
71959;SDS011;59832;51.146;14.024;2023-07-02T16:12:09;6.47;;;4.82;;
71959;SDS011;59832;51.146;14.024;2023-07-02T16:14:35;6.22;;;5.15;;
71959;SDS011;59832;51.146;14.024;2023-07-02T16:17:04;5.78;;;4.80;;
71959;SDS011;59832;51.146;14.024;2023-07-02T16:19:31;9.25;;;5.10;;
71959;SDS011;59832;51.146;14.024;2023-07-02T16:21:57;7.18;;;5.45;;
71959;SDS011;59832;51.146;14.024;2023-07-02T16:24:25;6.18;;;5.03;;
71959;SDS011;59832;51.146;14.024;2023-07-02T16:26:56;8.57;;;5.30;;
71959;SDS011;59832;51.146;14.024;2023-07-02T16:29:24;24.48;;;15.43;;
71959;SDS011;59832;51.146;14.024;2023-07-02T16:31:53;24.05;;;16.10;;
71959;SDS011;59832;51.146;14.024;2023-07-02T16:34:22;9.68;;;5.75;;
71959;SDS011;59832;51.146;14.024;2023-07-02T16:36:49;9.50;;;7.15;;
71959;SDS011;59832;51.146;14.024;2023-07-02T16:39:17;8.00;;;5.97;;
71959;SDS011;59832;51.146;14.024;2023-07-02T16:41:44;8.18;;;5.65;;
71959;SDS011;59832;51.146;14.024;2023-07-02T16:44:18;10.00;;;5.45;;
71959;SDS011;59832;51.146;14.024;2023-07-02T16:46:47;9.60;;;5.45;;
71959;SDS011;59832;51.146;14.024;2023-07-02T16:49:15;8.13;;;5.88;;
71959;SDS011;59832;51.146;14.024;2023-07-02T16:51:44;8.80;;;5.90;;
71959;SDS011;59832;51.146;14.024;2023-07-02T16:54:12;9.52;;;5.93;;
71959;SDS011;59832;51.146;14.024;2023-07-02T16:56:42;11.98;;;6.15;;
71959;SDS011;59832;51.146;14.024;2023-07-02T16:59:13;7.13;;;5.80;;
71959;SDS011;59832;51.146;14.024;2023-07-02T17:01:46;6.82;;;5.60;;
71959;SDS011;59832;51.146;14.024;2023-07-02T17:04:14;8.25;;;5.88;;
71959;SDS011;59832;51.146;14.024;2023-07-02T17:07:03;8.55;;;5.65;;
71959;SDS011;59832;51.146;14.024;2023-07-02T17:12:00;8.70;;;6.00;;
71959;SDS011;59832;51.146;14.024;2023-07-02T17:14:29;9.07;;;6.07;;
71959;SDS011;59832;51.146;14.024;2023-07-02T17:17:00;10.10;;;6.30;;
71959;SDS011;59832;51.146;14.024;2023-07-02T17:19:29;12.13;;;6.40;;
71959;SDS011;59832;51.146;14.024;2023-07-02T17:22:00;7.35;;;5.65;;
71959;SDS011;59832;51.146;14.024;2023-07-02T17:24:27;8.00;;;5.78;;
71959;SDS011;59832;51.146;14.024;2023-07-02T17:26:57;11.10;;;6.25;;
71959;SDS011;59832;51.146;14.024;2023-07-02T17:29:24;11.63;;;6.85;;
71959;SDS011;59832;51.146;14.024;2023-07-02T17:31:52;7.75;;;6.22;;
71959;SDS011;59832;51.146;14.024;2023-07-02T17:34:21;8.95;;;6.10;;
71959;SDS011;59832;51.146;14.024;2023-07-02T17:36:51;11.73;;;6.47;;
71959;SDS011;59832;51.146;14.024;2023-07-02T17:39:19;8.73;;;6.03;;
71959;SDS011;59832;51.146;14.024;2023-07-02T17:41:47;8.38;;;6.20;;
71959;SDS011;59832;51.146;14.024;2023-07-02T17:44:15;8.98;;;6.65;;
71959;SDS011;59832;51.146;14.024;2023-07-02T17:46:43;10.15;;;6.68;;
71959;SDS011;59832;51.146;14.024;2023-07-02T17:49:10;11.10;;;6.47;;
71959;SDS011;59832;51.146;14.024;2023-07-02T17:51:37;10.02;;;6.70;;
71959;SDS011;59832;51.146;14.024;2023-07-02T17:54:04;9.27;;;6.80;;
71959;SDS011;59832;51.146;14.024;2023-07-02T17:56:32;9.50;;;6.25;;
71959;SDS011;59832;51.146;14.024;2023-07-02T17:58:59;8.98;;;6.20;;
71959;SDS011;59832;51.146;14.024;2023-07-02T18:01:26;9.05;;;6.22;;
71959;SDS011;59832;51.146;14.024;2023-07-02T18:03:53;10.60;;;6.70;;
71959;SDS011;59832;51.146;14.024;2023-07-02T18:06:21;10.05;;;6.40;;
71959;SDS011;59832;51.146;14.024;2023-07-02T18:08:48;9.55;;;6.10;;
71959;SDS011;59832;51.146;14.024;2023-07-02T18:11:15;9.00;;;6.63;;
71959;SDS011;59832;51.146;14.024;2023-07-02T18:13:41;9.93;;;6.47;;
71959;SDS011;59832;51.146;14.024;2023-07-02T18:16:08;11.73;;;6.40;;
71959;SDS011;59832;51.146;14.024;2023-07-02T18:18:34;11.52;;;6.82;;
71959;SDS011;59832;51.146;14.024;2023-07-02T18:21:01;9.68;;;6.28;;
71959;SDS011;59832;51.146;14.024;2023-07-02T18:23:31;9.18;;;6.18;;
71959;SDS011;59832;51.146;14.024;2023-07-02T18:25:57;9.35;;;6.70;;
71959;SDS011;59832;51.146;14.024;2023-07-02T18:28:26;11.88;;;6.30;;
71959;SDS011;59832;51.146;14.024;2023-07-02T18:30:52;10.18;;;6.57;;
71959;SDS011;59832;51.146;14.024;2023-07-02T18:33:19;10.23;;;6.13;;
71959;SDS011;59832;51.146;14.024;2023-07-02T18:35:46;9.13;;;6.00;;
71959;SDS011;59832;51.146;14.024;2023-07-02T18:38:13;10.93;;;6.45;;
71959;SDS011;59832;51.146;14.024;2023-07-02T18:40:41;12.95;;;6.38;;
71959;SDS011;59832;51.146;14.024;2023-07-02T18:45:35;8.43;;;6.38;;
71959;SDS011;59832;51.146;14.024;2023-07-02T18:48:02;8.77;;;6.25;;
71959;SDS011;59832;51.146;14.024;2023-07-02T18:52:55;8.70;;;6.30;;
71959;SDS011;59832;51.146;14.024;2023-07-02T18:55:22;9.45;;;6.75;;
71959;SDS011;59832;51.146;14.024;2023-07-02T18:57:48;10.10;;;6.50;;
71959;SDS011;59832;51.146;14.024;2023-07-02T19:00:15;8.70;;;6.57;;
71959;SDS011;59832;51.146;14.024;2023-07-02T19:02:46;8.20;;;6.55;;
71959;SDS011;59832;51.146;14.024;2023-07-02T19:05:14;10.80;;;6.13;;
71959;SDS011;59832;51.146;14.024;2023-07-02T19:07:41;12.63;;;5.97;;
71959;SDS011;59832;51.146;14.024;2023-07-02T19:10:07;11.15;;;6.32;;
71959;SDS011;59832;51.146;14.024;2023-07-02T19:12:34;12.70;;;6.88;;